sensor_id;sensor_type;location;lat;lon;timestamp;temperature;humidity
10263;DHT22;5177;50.068;8.156;2022-11-21T00:01:52;6.60;99.90
10263;DHT22;5177;50.068;8.156;2022-11-21T00:04:17;6.60;99.90
10263;DHT22;5177;50.068;8.156;2022-11-21T00:06:43;6.50;99.90
10263;DHT22;5177;50.068;8.156;2022-11-21T00:09:08;6.60;99.90
10263;DHT22;5177;50.068;8.156;2022-11-21T00:11:34;6.60;99.90
10263;DHT22;5177;50.068;8.156;2022-11-21T00:13:59;6.50;99.90
10263;DHT22;5177;50.068;8.156;2022-11-21T00:16:25;6.50;99.90
10263;DHT22;5177;50.068;8.156;2022-11-21T00:18:50;6.50;99.90
10263;DHT22;5177;50.068;8.156;2022-11-21T00:21:16;6.50;99.90
10263;DHT22;5177;50.068;8.156;2022-11-21T00:23:42;6.50;99.90
10263;DHT22;5177;50.068;8.156;2022-11-21T00:26:09;6.50;99.90
10263;DHT22;5177;50.068;8.156;2022-11-21T00:28:35;6.40;99.90
10263;DHT22;5177;50.068;8.156;2022-11-21T00:31:00;6.40;99.90
10263;DHT22;5177;50.068;8.156;2022-11-21T00:33:26;6.40;99.90
10263;DHT22;5177;50.068;8.156;2022-11-21T00:35:52;6.40;99.90
10263;DHT22;5177;50.068;8.156;2022-11-21T00:38:17;6.40;99.90
10263;DHT22;5177;50.068;8.156;2022-11-21T00:40:43;6.40;99.90
10263;DHT22;5177;50.068;8.156;2022-11-21T00:43:09;6.40;99.90
10263;DHT22;5177;50.068;8.156;2022-11-21T00:45:34;6.40;99.90
10263;DHT22;5177;50.068;8.156;2022-11-21T00:48:00;6.40;99.90
10263;DHT22;5177;50.068;8.156;2022-11-21T00:50:25;6.40;99.90
10263;DHT22;5177;50.068;8.156;2022-11-21T00:52:55;6.40;99.90
10263;DHT22;5177;50.068;8.156;2022-11-21T00:55:21;6.40;99.90
10263;DHT22;5177;50.068;8.156;2022-11-21T00:57:47;6.40;99.90
10263;DHT22;5177;50.068;8.156;2022-11-21T01:00:12;6.50;99.90
10263;DHT22;5177;50.068;8.156;2022-11-21T01:02:38;6.50;99.90
10263;DHT22;5177;50.068;8.156;2022-11-21T01:05:04;6.50;99.90
10263;DHT22;5177;50.068;8.156;2022-11-21T01:07:29;6.50;99.90
10263;DHT22;5177;50.068;8.156;2022-11-21T01:09:55;6.50;99.90
10263;DHT22;5177;50.068;8.156;2022-11-21T01:12:20;6.50;99.90
10263;DHT22;5177;50.068;8.156;2022-11-21T01:14:46;6.60;99.90
10263;DHT22;5177;50.068;8.156;2022-11-21T01:17:11;6.50;99.90
10263;DHT22;5177;50.068;8.156;2022-11-21T01:19:37;6.50;99.90
10263;DHT22;5177;50.068;8.156;2022-11-21T01:22:02;6.50;99.90
10263;DHT22;5177;50.068;8.156;2022-11-21T01:24:28;6.50;99.90
10263;DHT22;5177;50.068;8.156;2022-11-21T01:26:53;6.50;99.90
10263;DHT22;5177;50.068;8.156;2022-11-21T01:29:19;6.60;99.90
10263;DHT22;5177;50.068;8.156;2022-11-21T01:31:45;6.60;99.90
10263;DHT22;5177;50.068;8.156;2022-11-21T01:34:10;6.60;99.90
10263;DHT22;5177;50.068;8.156;2022-11-21T01:36:36;6.50;99.90
10263;DHT22;5177;50.068;8.156;2022-11-21T01:39:02;6.50;99.90
10263;DHT22;5177;50.068;8.156;2022-11-21T01:41:30;6.50;99.90
10263;DHT22;5177;50.068;8.156;2022-11-21T01:43:58;6.60;99.90
10263;DHT22;5177;50.068;8.156;2022-11-21T01:46:24;6.60;99.90
10263;DHT22;5177;50.068;8.156;2022-11-21T01:54:13;6.60;99.90
10263;DHT22;5177;50.068;8.156;2022-11-21T01:56:42;6.60;99.90
10263;DHT22;5177;50.068;8.156;2022-11-21T01:59:10;6.60;99.90
10263;DHT22;5177;50.068;8.156;2022-11-21T02:01:38;6.60;99.90
10263;DHT22;5177;50.068;8.156;2022-11-21T02:04:03;6.60;99.90
10263;DHT22;5177;50.068;8.156;2022-11-21T02:06:30;6.60;99.90
10263;DHT22;5177;50.068;8.156;2022-11-21T02:08:56;6.60;99.90
10263;DHT22;5177;50.068;8.156;2022-11-21T02:11:29;6.60;99.90
10263;DHT22;5177;50.068;8.156;2022-11-21T02:13:56;6.60;99.90
10263;DHT22;5177;50.068;8.156;2022-11-21T02:16:22;6.60;99.90
10263;DHT22;5177;50.068;8.156;2022-11-21T02:18:48;6.50;99.90
10263;DHT22;5177;50.068;8.156;2022-11-21T02:23:49;6.50;99.90
10263;DHT22;5177;50.068;8.156;2022-11-21T02:26:17;6.50;99.90
10263;DHT22;5177;50.068;8.156;2022-11-21T02:28:43;6.50;99.90
10263;DHT22;5177;50.068;8.156;2022-11-21T02:31:08;6.60;99.90
10263;DHT22;5177;50.068;8.156;2022-11-21T02:33:34;6.60;99.90
10263;DHT22;5177;50.068;8.156;2022-11-21T02:36:00;6.60;99.90
10263;DHT22;5177;50.068;8.156;2022-11-21T02:38:27;6.60;99.90
10263;DHT22;5177;50.068;8.156;2022-11-21T02:43:21;6.50;99.90
10263;DHT22;5177;50.068;8.156;2022-11-21T02:45:47;6.50;99.90
10263;DHT22;5177;50.068;8.156;2022-11-21T02:48:13;6.50;99.90
10263;DHT22;5177;50.068;8.156;2022-11-21T02:50:40;6.50;99.90
10263;DHT22;5177;50.068;8.156;2022-11-21T02:53:06;6.50;99.90
10263;DHT22;5177;50.068;8.156;2022-11-21T02:55:32;6.50;99.90
10263;DHT22;5177;50.068;8.156;2022-11-21T02:57:57;6.50;99.90
10263;DHT22;5177;50.068;8.156;2022-11-21T03:00:23;6.60;99.90
10263;DHT22;5177;50.068;8.156;2022-11-21T03:02:49;6.50;99.90
10263;DHT22;5177;50.068;8.156;2022-11-21T03:05:15;6.50;99.90
10263;DHT22;5177;50.068;8.156;2022-11-21T03:07:41;6.50;99.90
10263;DHT22;5177;50.068;8.156;2022-11-21T03:10:07;6.30;99.90
10263;DHT22;5177;50.068;8.156;2022-11-21T03:12:39;6.40;99.90
10263;DHT22;5177;50.068;8.156;2022-11-21T03:15:06;6.30;99.90
10263;DHT22;5177;50.068;8.156;2022-11-21T03:17:32;6.30;99.90
10263;DHT22;5177;50.068;8.156;2022-11-21T03:19:57;6.30;99.90
10263;DHT22;5177;50.068;8.156;2022-11-21T03:22:23;6.30;99.90
10263;DHT22;5177;50.068;8.156;2022-11-21T03:24:48;6.30;99.90
10263;DHT22;5177;50.068;8.156;2022-11-21T03:27:14;6.30;99.90
10263;DHT22;5177;50.068;8.156;2022-11-21T03:29:39;6.30;99.90
10263;DHT22;5177;50.068;8.156;2022-11-21T03:32:05;6.30;99.90
10263;DHT22;5177;50.068;8.156;2022-11-21T03:34:30;6.30;99.90
10263;DHT22;5177;50.068;8.156;2022-11-21T03:36:56;6.40;99.90
10263;DHT22;5177;50.068;8.156;2022-11-21T03:39:21;6.40;99.90
10263;DHT22;5177;50.068;8.156;2022-11-21T03:41:47;6.40;99.90
10263;DHT22;5177;50.068;8.156;2022-11-21T03:44:12;6.40;99.90
10263;DHT22;5177;50.068;8.156;2022-11-21T03:46:39;6.50;99.90
10263;DHT22;5177;50.068;8.156;2022-11-21T03:49:05;6.50;99.90
10263;DHT22;5177;50.068;8.156;2022-11-21T03:51:31;6.50;99.90
10263;DHT22;5177;50.068;8.156;2022-11-21T03:53:56;6.60;99.90
10263;DHT22;5177;50.068;8.156;2022-11-21T03:56:22;6.60;99.90
10263;DHT22;5177;50.068;8.156;2022-11-21T03:58:48;6.50;99.90
10263;DHT22;5177;50.068;8.156;2022-11-21T04:01:13;6.60;99.90
10263;DHT22;5177;50.068;8.156;2022-11-21T04:03:40;6.60;99.90
10263;DHT22;5177;50.068;8.156;2022-11-21T04:06:05;6.60;99.90
10263;DHT22;5177;50.068;8.156;2022-11-21T04:08:31;6.60;99.90
10263;DHT22;5177;50.068;8.156;2022-11-21T04:10:56;6.70;99.90
10263;DHT22;5177;50.068;8.156;2022-11-21T04:13:22;6.60;99.90
10263;DHT22;5177;50.068;8.156;2022-11-21T04:15:47;6.60;99.90
10263;DHT22;5177;50.068;8.156;2022-11-21T04:18:13;6.70;99.90
10263;DHT22;5177;50.068;8.156;2022-11-21T04:20:39;6.70;99.90
10263;DHT22;5177;50.068;8.156;2022-11-21T04:23:04;6.70;99.90
10263;DHT22;5177;50.068;8.156;2022-11-21T04:25:30;6.70;99.90
10263;DHT22;5177;50.068;8.156;2022-11-21T04:27:59;6.70;99.90
10263;DHT22;5177;50.068;8.156;2022-11-21T04:30:25;6.60;99.90
10263;DHT22;5177;50.068;8.156;2022-11-21T04:32:51;6.60;99.90
10263;DHT22;5177;50.068;8.156;2022-11-21T04:35:17;6.60;99.90
10263;DHT22;5177;50.068;8.156;2022-11-21T04:37:42;6.60;99.90
10263;DHT22;5177;50.068;8.156;2022-11-21T04:40:08;6.60;99.90
10263;DHT22;5177;50.068;8.156;2022-11-21T04:42:33;6.60;99.90
10263;DHT22;5177;50.068;8.156;2022-11-21T04:44:59;6.50;99.90
10263;DHT22;5177;50.068;8.156;2022-11-21T04:47:24;6.50;99.90
10263;DHT22;5177;50.068;8.156;2022-11-21T04:49:50;6.50;99.90
10263;DHT22;5177;50.068;8.156;2022-11-21T04:52:15;6.50;99.90
10263;DHT22;5177;50.068;8.156;2022-11-21T04:54:41;6.40;99.90
10263;DHT22;5177;50.068;8.156;2022-11-21T04:57:06;6.40;99.90
10263;DHT22;5177;50.068;8.156;2022-11-21T04:59:32;6.30;99.90
10263;DHT22;5177;50.068;8.156;2022-11-21T05:01:57;6.30;99.90
10263;DHT22;5177;50.068;8.156;2022-11-21T05:04:23;6.30;99.90
10263;DHT22;5177;50.068;8.156;2022-11-21T05:06:48;6.20;99.90
10263;DHT22;5177;50.068;8.156;2022-11-21T05:09:14;6.10;99.90
10263;DHT22;5177;50.068;8.156;2022-11-21T05:11:39;6.10;99.90
10263;DHT22;5177;50.068;8.156;2022-11-21T05:14:24;6.10;99.90
10263;DHT22;5177;50.068;8.156;2022-11-21T05:16:50;6.10;99.90
10263;DHT22;5177;50.068;8.156;2022-11-21T05:19:16;6.10;99.90
10263;DHT22;5177;50.068;8.156;2022-11-21T05:21:41;6.10;99.90
10263;DHT22;5177;50.068;8.156;2022-11-21T05:24:07;6.20;99.90
10263;DHT22;5177;50.068;8.156;2022-11-21T05:26:32;6.20;99.90
10263;DHT22;5177;50.068;8.156;2022-11-21T05:28:58;6.30;99.90
10263;DHT22;5177;50.068;8.156;2022-11-21T05:31:23;6.30;99.90
10263;DHT22;5177;50.068;8.156;2022-11-21T05:33:49;6.40;99.90
10263;DHT22;5177;50.068;8.156;2022-11-21T05:36:14;6.40;99.90
10263;DHT22;5177;50.068;8.156;2022-11-21T05:38:40;6.40;99.90
10263;DHT22;5177;50.068;8.156;2022-11-21T05:41:05;6.50;99.90
10263;DHT22;5177;50.068;8.156;2022-11-21T05:43:31;6.60;99.90
10263;DHT22;5177;50.068;8.156;2022-11-21T05:46:12;6.60;99.90
10263;DHT22;5177;50.068;8.156;2022-11-21T05:48:38;6.60;99.90
10263;DHT22;5177;50.068;8.156;2022-11-21T05:51:03;6.70;99.90
10263;DHT22;5177;50.068;8.156;2022-11-21T05:53:29;6.70;99.90
10263;DHT22;5177;50.068;8.156;2022-11-21T05:55:55;6.70;99.90
10263;DHT22;5177;50.068;8.156;2022-11-21T05:58:20;6.70;99.90
10263;DHT22;5177;50.068;8.156;2022-11-21T06:00:46;6.70;99.90
10263;DHT22;5177;50.068;8.156;2022-11-21T06:03:11;6.70;99.90
10263;DHT22;5177;50.068;8.156;2022-11-21T06:05:57;6.70;99.90
10263;DHT22;5177;50.068;8.156;2022-11-21T06:08:22;6.60;99.90
10263;DHT22;5177;50.068;8.156;2022-11-21T06:10:48;6.60;99.90
10263;DHT22;5177;50.068;8.156;2022-11-21T06:13:13;6.50;99.90
10263;DHT22;5177;50.068;8.156;2022-11-21T06:15:52;6.50;99.90
10263;DHT22;5177;50.068;8.156;2022-11-21T06:18:18;6.50;99.90
10263;DHT22;5177;50.068;8.156;2022-11-21T06:20:43;6.50;99.90
10263;DHT22;5177;50.068;8.156;2022-11-21T06:23:10;6.50;99.90
10263;DHT22;5177;50.068;8.156;2022-11-21T06:25:35;6.40;99.90
10263;DHT22;5177;50.068;8.156;2022-11-21T06:28:01;6.40;99.90
10263;DHT22;5177;50.068;8.156;2022-11-21T06:30:26;6.40;99.90
10263;DHT22;5177;50.068;8.156;2022-11-21T06:32:51;6.40;99.90
10263;DHT22;5177;50.068;8.156;2022-11-21T06:35:17;6.40;99.90
10263;DHT22;5177;50.068;8.156;2022-11-21T06:37:42;6.50;99.90
10263;DHT22;5177;50.068;8.156;2022-11-21T06:40:08;6.40;99.90
10263;DHT22;5177;50.068;8.156;2022-11-21T06:42:34;6.50;99.90
10263;DHT22;5177;50.068;8.156;2022-11-21T06:44:59;6.50;99.90
10263;DHT22;5177;50.068;8.156;2022-11-21T06:47:25;6.50;99.90
10263;DHT22;5177;50.068;8.156;2022-11-21T06:49:50;6.50;99.90
10263;DHT22;5177;50.068;8.156;2022-11-21T06:52:16;6.60;99.90
10263;DHT22;5177;50.068;8.156;2022-11-21T06:54:41;6.50;99.90
10263;DHT22;5177;50.068;8.156;2022-11-21T06:57:07;6.50;99.90
10263;DHT22;5177;50.068;8.156;2022-11-21T06:59:32;6.50;99.90
10263;DHT22;5177;50.068;8.156;2022-11-21T07:01:58;6.50;99.90
10263;DHT22;5177;50.068;8.156;2022-11-21T07:04:24;6.50;99.90
10263;DHT22;5177;50.068;8.156;2022-11-21T07:06:49;6.50;99.90
10263;DHT22;5177;50.068;8.156;2022-11-21T07:09:15;6.40;99.90
10263;DHT22;5177;50.068;8.156;2022-11-21T07:11:40;6.40;99.90
10263;DHT22;5177;50.068;8.156;2022-11-21T07:14:06;6.50;99.90
10263;DHT22;5177;50.068;8.156;2022-11-21T07:16:32;6.50;99.90
10263;DHT22;5177;50.068;8.156;2022-11-21T07:18:58;6.50;99.90
10263;DHT22;5177;50.068;8.156;2022-11-21T07:21:24;6.50;99.90
10263;DHT22;5177;50.068;8.156;2022-11-21T07:23:50;6.50;99.90
10263;DHT22;5177;50.068;8.156;2022-11-21T07:26:15;6.60;99.90
10263;DHT22;5177;50.068;8.156;2022-11-21T07:28:41;6.60;99.90
10263;DHT22;5177;50.068;8.156;2022-11-21T07:31:07;6.60;99.90
10263;DHT22;5177;50.068;8.156;2022-11-21T07:33:33;6.60;99.90
10263;DHT22;5177;50.068;8.156;2022-11-21T07:35:58;6.60;99.90
10263;DHT22;5177;50.068;8.156;2022-11-21T07:38:24;6.60;99.90
10263;DHT22;5177;50.068;8.156;2022-11-21T07:40:50;6.60;99.90
10263;DHT22;5177;50.068;8.156;2022-11-21T07:43:17;6.60;99.90
10263;DHT22;5177;50.068;8.156;2022-11-21T07:45:42;6.60;99.90
10263;DHT22;5177;50.068;8.156;2022-11-21T07:48:08;6.70;99.90
10263;DHT22;5177;50.068;8.156;2022-11-21T07:50:34;6.50;99.90
10263;DHT22;5177;50.068;8.156;2022-11-21T07:53:00;6.60;99.90
10263;DHT22;5177;50.068;8.156;2022-11-21T07:55:26;6.70;99.90
10263;DHT22;5177;50.068;8.156;2022-11-21T07:57:58;6.70;99.90
10263;DHT22;5177;50.068;8.156;2022-11-21T08:00:24;6.70;99.90
10263;DHT22;5177;50.068;8.156;2022-11-21T08:02:49;6.80;99.90
10263;DHT22;5177;50.068;8.156;2022-11-21T08:05:15;6.80;99.90
10263;DHT22;5177;50.068;8.156;2022-11-21T08:07:40;6.90;99.90
10263;DHT22;5177;50.068;8.156;2022-11-21T08:10:06;6.90;99.90
10263;DHT22;5177;50.068;8.156;2022-11-21T08:12:31;6.90;99.90
10263;DHT22;5177;50.068;8.156;2022-11-21T08:14:57;6.90;99.90
10263;DHT22;5177;50.068;8.156;2022-11-21T08:17:24;6.90;99.90
10263;DHT22;5177;50.068;8.156;2022-11-21T08:19:50;6.90;99.90
10263;DHT22;5177;50.068;8.156;2022-11-21T08:22:15;6.90;99.90
10263;DHT22;5177;50.068;8.156;2022-11-21T08:24:41;6.90;99.90
10263;DHT22;5177;50.068;8.156;2022-11-21T08:27:06;7.00;99.90
10263;DHT22;5177;50.068;8.156;2022-11-21T08:29:32;7.00;99.90
10263;DHT22;5177;50.068;8.156;2022-11-21T08:31:57;7.10;99.90
10263;DHT22;5177;50.068;8.156;2022-11-21T08:34:23;7.20;99.90
10263;DHT22;5177;50.068;8.156;2022-11-21T08:36:48;7.50;99.90
10263;DHT22;5177;50.068;8.156;2022-11-21T08:39:14;7.80;99.90
10263;DHT22;5177;50.068;8.156;2022-11-21T08:41:39;8.20;69.10
10263;DHT22;5177;50.068;8.156;2022-11-21T08:44:23;8.50;23.50
10263;DHT22;5177;50.068;8.156;2022-11-21T08:46:49;8.70;10.40
10263;DHT22;5177;50.068;8.156;2022-11-21T08:49:14;8.70;1.00
10263;DHT22;5177;50.068;8.156;2022-11-21T08:51:40;8.50;9.80
10263;DHT22;5177;50.068;8.156;2022-11-21T08:54:05;8.40;18.60
10263;DHT22;5177;50.068;8.156;2022-11-21T08:56:31;8.20;16.10
10263;DHT22;5177;50.068;8.156;2022-11-21T08:58:57;8.30;55.40
10263;DHT22;5177;50.068;8.156;2022-11-21T09:01:22;8.50;52.30
10263;DHT22;5177;50.068;8.156;2022-11-21T09:03:48;8.70;26.10
10263;DHT22;5177;50.068;8.156;2022-11-21T09:06:13;8.80;29.40
10263;DHT22;5177;50.068;8.156;2022-11-21T09:08:40;8.80;1.00
10263;DHT22;5177;50.068;8.156;2022-11-21T09:11:06;8.90;2.40
10263;DHT22;5177;50.068;8.156;2022-11-21T09:13:32;8.90;1.00
10263;DHT22;5177;50.068;8.156;2022-11-21T09:15:58;9.10;1.00
10263;DHT22;5177;50.068;8.156;2022-11-21T09:18:42;9.20;1.00
10263;DHT22;5177;50.068;8.156;2022-11-21T09:21:08;9.30;1.00
10263;DHT22;5177;50.068;8.156;2022-11-21T09:23:33;9.30;1.00
10263;DHT22;5177;50.068;8.156;2022-11-21T09:25:59;9.50;1.00
10263;DHT22;5177;50.068;8.156;2022-11-21T09:28:25;9.70;1.00
10263;DHT22;5177;50.068;8.156;2022-11-21T09:30:50;9.70;1.00
10263;DHT22;5177;50.068;8.156;2022-11-21T09:33:16;9.90;1.00
10263;DHT22;5177;50.068;8.156;2022-11-21T09:35:41;9.70;1.00
10263;DHT22;5177;50.068;8.156;2022-11-21T09:38:07;9.60;1.00
10263;DHT22;5177;50.068;8.156;2022-11-21T09:40:33;9.60;1.00
10263;DHT22;5177;50.068;8.156;2022-11-21T09:43:02;9.60;1.00
10263;DHT22;5177;50.068;8.156;2022-11-21T09:45:33;9.50;1.00
10263;DHT22;5177;50.068;8.156;2022-11-21T09:48:07;9.60;1.00
10263;DHT22;5177;50.068;8.156;2022-11-21T09:50:35;9.50;1.00
10263;DHT22;5177;50.068;8.156;2022-11-21T09:53:11;9.10;1.00
10263;DHT22;5177;50.068;8.156;2022-11-21T09:58:08;8.80;1.00
10263;DHT22;5177;50.068;8.156;2022-11-21T10:00:35;8.90;1.00
10263;DHT22;5177;50.068;8.156;2022-11-21T10:03:00;9.10;1.00
10263;DHT22;5177;50.068;8.156;2022-11-21T10:05:32;9.00;1.00
10263;DHT22;5177;50.068;8.156;2022-11-21T10:08:00;9.30;1.00
10263;DHT22;5177;50.068;8.156;2022-11-21T10:13:28;9.90;1.00
10263;DHT22;5177;50.068;8.156;2022-11-21T10:15:57;10.00;1.00
10263;DHT22;5177;50.068;8.156;2022-11-21T10:23:34;10.50;1.00
10263;DHT22;5177;50.068;8.156;2022-11-21T10:31:11;10.70;1.00
10263;DHT22;5177;50.068;8.156;2022-11-21T10:33:37;10.60;99.90
10263;DHT22;5177;50.068;8.156;2022-11-21T10:36:22;10.90;99.90
10263;DHT22;5177;50.068;8.156;2022-11-21T10:38:49;11.10;95.80
10263;DHT22;5177;50.068;8.156;2022-11-21T10:41:17;11.50;99.90
10263;DHT22;5177;50.068;8.156;2022-11-21T10:44:03;11.40;99.90
10263;DHT22;5177;50.068;8.156;2022-11-21T10:46:57;11.50;99.90
10263;DHT22;5177;50.068;8.156;2022-11-21T10:49:24;11.50;99.90
10263;DHT22;5177;50.068;8.156;2022-11-21T10:51:52;11.60;99.90
10263;DHT22;5177;50.068;8.156;2022-11-21T10:54:21;11.40;99.90
10263;DHT22;5177;50.068;8.156;2022-11-21T10:57:12;11.50;99.90
10263;DHT22;5177;50.068;8.156;2022-11-21T10:59:38;11.50;99.90
10263;DHT22;5177;50.068;8.156;2022-11-21T11:04:39;11.50;99.90
10263;DHT22;5177;50.068;8.156;2022-11-21T11:07:23;11.50;99.90
10263;DHT22;5177;50.068;8.156;2022-11-21T11:09:50;11.30;99.90
10263;DHT22;5177;50.068;8.156;2022-11-21T11:12:24;11.50;99.90
10263;DHT22;5177;50.068;8.156;2022-11-21T11:15:18;11.10;99.90
10263;DHT22;5177;50.068;8.156;2022-11-21T11:17:44;10.90;99.90
10263;DHT22;5177;50.068;8.156;2022-11-21T11:22:57;10.40;99.90
10263;DHT22;5177;50.068;8.156;2022-11-21T11:25:23;10.40;99.90
10263;DHT22;5177;50.068;8.156;2022-11-21T11:27:50;10.40;99.90
10263;DHT22;5177;50.068;8.156;2022-11-21T11:30:17;10.10;99.90
10263;DHT22;5177;50.068;8.156;2022-11-21T11:32:42;10.00;99.90
10263;DHT22;5177;50.068;8.156;2022-11-21T11:37:37;9.70;99.90
10263;DHT22;5177;50.068;8.156;2022-11-21T11:42:57;9.50;99.90
10263;DHT22;5177;50.068;8.156;2022-11-21T11:48:29;9.50;99.90
10263;DHT22;5177;50.068;8.156;2022-11-21T11:50:58;9.30;99.90
10263;DHT22;5177;50.068;8.156;2022-11-21T11:53:26;9.40;99.90
10263;DHT22;5177;50.068;8.156;2022-11-21T11:55:55;9.20;99.90
10263;DHT22;5177;50.068;8.156;2022-11-21T12:03:19;9.40;99.90
10263;DHT22;5177;50.068;8.156;2022-11-21T12:05:51;9.40;99.90
10263;DHT22;5177;50.068;8.156;2022-11-21T12:08:20;9.60;99.90
10263;DHT22;5177;50.068;8.156;2022-11-21T12:10:56;9.80;99.90
10263;DHT22;5177;50.068;8.156;2022-11-21T12:13:42;10.00;99.90
10263;DHT22;5177;50.068;8.156;2022-11-21T12:16:09;10.20;99.90
10263;DHT22;5177;50.068;8.156;2022-11-21T12:18:58;10.10;99.90
10263;DHT22;5177;50.068;8.156;2022-11-21T12:21:24;10.20;99.90
10263;DHT22;5177;50.068;8.156;2022-11-21T12:23:51;10.30;99.90
10263;DHT22;5177;50.068;8.156;2022-11-21T12:26:33;10.40;99.90
10263;DHT22;5177;50.068;8.156;2022-11-21T12:29:11;10.50;99.90
10263;DHT22;5177;50.068;8.156;2022-11-21T12:37:03;10.30;99.90
10263;DHT22;5177;50.068;8.156;2022-11-21T12:42:19;10.10;99.90
10263;DHT22;5177;50.068;8.156;2022-11-21T12:45:17;10.40;99.90
10263;DHT22;5177;50.068;8.156;2022-11-21T12:50:45;10.90;99.90
10263;DHT22;5177;50.068;8.156;2022-11-21T12:53:35;11.20;99.90
10263;DHT22;5177;50.068;8.156;2022-11-21T12:56:37;11.00;99.90
10263;DHT22;5177;50.068;8.156;2022-11-21T12:59:06;11.00;99.90
10263;DHT22;5177;50.068;8.156;2022-11-21T13:01:43;10.90;99.90
10263;DHT22;5177;50.068;8.156;2022-11-21T13:04:16;10.80;99.90
10263;DHT22;5177;50.068;8.156;2022-11-21T13:06:43;10.70;99.90
10263;DHT22;5177;50.068;8.156;2022-11-21T13:09:12;10.50;99.90
10263;DHT22;5177;50.068;8.156;2022-11-21T13:11:43;10.20;99.90
10263;DHT22;5177;50.068;8.156;2022-11-21T13:17:01;9.90;99.90
10263;DHT22;5177;50.068;8.156;2022-11-21T13:24:56;9.80;99.90
10263;DHT22;5177;50.068;8.156;2022-11-21T13:27:23;9.80;99.90
10263;DHT22;5177;50.068;8.156;2022-11-21T13:32:37;9.70;99.90
10263;DHT22;5177;50.068;8.156;2022-11-21T13:45:47;9.60;99.90
10263;DHT22;5177;50.068;8.156;2022-11-21T13:51:01;9.60;99.90
10263;DHT22;5177;50.068;8.156;2022-11-21T13:56:10;9.60;99.90
10263;DHT22;5177;50.068;8.156;2022-11-21T13:58:57;9.80;99.90
10263;DHT22;5177;50.068;8.156;2022-11-21T14:01:47;9.90;99.90
10263;DHT22;5177;50.068;8.156;2022-11-21T14:09:46;10.20;99.90
10263;DHT22;5177;50.068;8.156;2022-11-21T14:12:18;10.40;99.90
10263;DHT22;5177;50.068;8.156;2022-11-21T14:17:28;10.30;99.90
10263;DHT22;5177;50.068;8.156;2022-11-21T14:19:56;10.30;99.90
10263;DHT22;5177;50.068;8.156;2022-11-21T14:24:51;10.00;99.90
10263;DHT22;5177;50.068;8.156;2022-11-21T14:27:25;10.00;99.90
10263;DHT22;5177;50.068;8.156;2022-11-21T14:29:51;9.80;99.90
10263;DHT22;5177;50.068;8.156;2022-11-21T14:32:17;9.70;99.90
10263;DHT22;5177;50.068;8.156;2022-11-21T14:34:49;9.50;99.90
10263;DHT22;5177;50.068;8.156;2022-11-21T14:37:15;9.40;99.90
10263;DHT22;5177;50.068;8.156;2022-11-21T14:39:40;9.40;99.90
10263;DHT22;5177;50.068;8.156;2022-11-21T14:42:10;9.20;99.90
10263;DHT22;5177;50.068;8.156;2022-11-21T14:44:37;9.20;99.90
10263;DHT22;5177;50.068;8.156;2022-11-21T14:47:14;9.10;99.90
10263;DHT22;5177;50.068;8.156;2022-11-21T14:49:47;9.10;99.90
10263;DHT22;5177;50.068;8.156;2022-11-21T14:52:16;9.00;99.90
10263;DHT22;5177;50.068;8.156;2022-11-21T14:57:18;8.80;99.90
10263;DHT22;5177;50.068;8.156;2022-11-21T14:59:44;8.70;99.90
10263;DHT22;5177;50.068;8.156;2022-11-21T15:02:11;8.60;99.90
10263;DHT22;5177;50.068;8.156;2022-11-21T15:04:37;8.50;99.90
10263;DHT22;5177;50.068;8.156;2022-11-21T15:07:02;8.40;99.90
10263;DHT22;5177;50.068;8.156;2022-11-21T15:09:28;8.30;99.90
10263;DHT22;5177;50.068;8.156;2022-11-21T15:12:02;8.30;99.90
10263;DHT22;5177;50.068;8.156;2022-11-21T15:14:33;8.30;99.90
10263;DHT22;5177;50.068;8.156;2022-11-21T15:17:01;8.20;99.90
10263;DHT22;5177;50.068;8.156;2022-11-21T15:19:28;8.20;99.90
10263;DHT22;5177;50.068;8.156;2022-11-21T15:21:55;8.20;99.90
10263;DHT22;5177;50.068;8.156;2022-11-21T15:24:28;8.10;99.90
10263;DHT22;5177;50.068;8.156;2022-11-21T15:26:54;8.10;99.90
10263;DHT22;5177;50.068;8.156;2022-11-21T15:29:20;8.00;99.90
10263;DHT22;5177;50.068;8.156;2022-11-21T15:31:49;7.90;99.90
10263;DHT22;5177;50.068;8.156;2022-11-21T15:34:29;7.90;99.90
10263;DHT22;5177;50.068;8.156;2022-11-21T15:37:01;7.90;99.90
10263;DHT22;5177;50.068;8.156;2022-11-21T15:39:28;7.90;99.90
10263;DHT22;5177;50.068;8.156;2022-11-21T15:41:54;7.90;99.90
10263;DHT22;5177;50.068;8.156;2022-11-21T15:44:20;7.80;99.90
10263;DHT22;5177;50.068;8.156;2022-11-21T15:46:49;7.80;99.90
10263;DHT22;5177;50.068;8.156;2022-11-21T15:49:15;7.80;99.90
10263;DHT22;5177;50.068;8.156;2022-11-21T15:51:43;7.70;1.00
10263;DHT22;5177;50.068;8.156;2022-11-21T15:54:09;7.70;1.00
10263;DHT22;5177;50.068;8.156;2022-11-21T15:56:35;7.70;1.00
10263;DHT22;5177;50.068;8.156;2022-11-21T15:59:01;7.70;1.00
10263;DHT22;5177;50.068;8.156;2022-11-21T16:01:27;7.70;1.00
10263;DHT22;5177;50.068;8.156;2022-11-21T16:04:00;7.60;1.00
10263;DHT22;5177;50.068;8.156;2022-11-21T16:06:26;7.50;1.00
10263;DHT22;5177;50.068;8.156;2022-11-21T16:08:52;7.50;1.00
10263;DHT22;5177;50.068;8.156;2022-11-21T16:11:29;7.60;1.00
10263;DHT22;5177;50.068;8.156;2022-11-21T16:13:55;7.50;1.00
10263;DHT22;5177;50.068;8.156;2022-11-21T16:16:23;7.40;1.00
10263;DHT22;5177;50.068;8.156;2022-11-21T16:18:49;7.40;1.00
10263;DHT22;5177;50.068;8.156;2022-11-21T16:21:14;7.30;22.50
10263;DHT22;5177;50.068;8.156;2022-11-21T16:23:40;7.30;99.90
10263;DHT22;5177;50.068;8.156;2022-11-21T16:26:06;7.20;99.90
10263;DHT22;5177;50.068;8.156;2022-11-21T16:28:32;7.10;99.90
10263;DHT22;5177;50.068;8.156;2022-11-21T16:30:58;7.10;99.90
10263;DHT22;5177;50.068;8.156;2022-11-21T16:33:23;7.00;99.90
10263;DHT22;5177;50.068;8.156;2022-11-21T16:35:49;7.00;99.90
10263;DHT22;5177;50.068;8.156;2022-11-21T16:38:24;7.00;99.90
10263;DHT22;5177;50.068;8.156;2022-11-21T16:43:18;6.90;99.90
10263;DHT22;5177;50.068;8.156;2022-11-21T16:45:44;6.90;99.90
10263;DHT22;5177;50.068;8.156;2022-11-21T16:48:09;6.80;99.90
10263;DHT22;5177;50.068;8.156;2022-11-21T16:50:35;6.80;99.90
10263;DHT22;5177;50.068;8.156;2022-11-21T16:53:00;6.80;99.90
10263;DHT22;5177;50.068;8.156;2022-11-21T16:55:26;6.70;99.90
10263;DHT22;5177;50.068;8.156;2022-11-21T16:57:52;6.70;99.90
10263;DHT22;5177;50.068;8.156;2022-11-21T17:00:19;6.70;99.90
10263;DHT22;5177;50.068;8.156;2022-11-21T17:02:44;6.70;99.90
10263;DHT22;5177;50.068;8.156;2022-11-21T17:05:10;6.70;99.90
10263;DHT22;5177;50.068;8.156;2022-11-21T17:07:35;6.70;99.90
10263;DHT22;5177;50.068;8.156;2022-11-21T17:10:01;6.60;99.90
10263;DHT22;5177;50.068;8.156;2022-11-21T17:12:26;6.60;99.90
10263;DHT22;5177;50.068;8.156;2022-11-21T17:14:52;6.60;99.90
10263;DHT22;5177;50.068;8.156;2022-11-21T17:17:17;6.60;99.90
10263;DHT22;5177;50.068;8.156;2022-11-21T17:19:43;6.60;99.90
10263;DHT22;5177;50.068;8.156;2022-11-21T17:22:11;6.60;99.90
10263;DHT22;5177;50.068;8.156;2022-11-21T17:24:36;6.60;99.90
10263;DHT22;5177;50.068;8.156;2022-11-21T17:27:01;6.60;99.90
10263;DHT22;5177;50.068;8.156;2022-11-21T17:29:27;6.60;99.90
10263;DHT22;5177;50.068;8.156;2022-11-21T17:31:53;6.50;99.90
10263;DHT22;5177;50.068;8.156;2022-11-21T17:34:19;6.50;99.90
10263;DHT22;5177;50.068;8.156;2022-11-21T17:36:44;6.50;99.90
10263;DHT22;5177;50.068;8.156;2022-11-21T17:39:09;6.50;99.90
10263;DHT22;5177;50.068;8.156;2022-11-21T17:41:37;6.50;99.90
10263;DHT22;5177;50.068;8.156;2022-11-21T17:44:04;6.40;99.90